Grizzly Air Cargo 5371


PACD
Cold Bay Airport
Cold Bay, Alaska, US
PAKN
King Salmon Airport
King Salmon, Alaska, US

Activity Log

Date Flight Route Aircraft Duration
11/22/2020 GRZ5371 CDB J115 AKN SF34 1h 37m

Route Details

Aircraft Information
Primary: Saab 340AF
Backup: Not Available
Route Data
Distance: 302nm
Sched. Duration: 1h 39m
Avg. Duration: 1h 37m (-3m)
Times Flown: 1
Recm'd Route: CDB J115 AKN
Planned Altitude: 25,000ft
Origin Wx: PACD 240853Z AUTO VRB05KT 10SM CLR 00/M01 A3021 RMK AO2 SLP231 T00001011 400280000 53006 TSNO $
Dest. Wx: PAKN 240854Z 26019G23KT 10SM OVC009 M03/M04 A2994 RMK AO2 SNE18 SLP141 P0000 60000 T10281044 400171028 51037
Notes:

Financial History
Total Freight: 8,245lbs
Average Load: 8,245lbs/flt
Fuel Used: 1,049lbs
Avg. Fuel Used: 1,049lbs/flt
Fuel Expense: $934
Avg. Fuel Expense: $934
Avg. Fuel Cost: $0.89/lbs
Total Gross Income: $19,541
Pilot Pay: $229
Total Expenses: $2,162
Total Revenue: $16,131
Average Revenue: $19,540.65